createdAt,value
2019-01-17T00:03:30.851Z,99.90
2019-01-17T00:08:38.506Z,99.90
2019-01-17T00:13:42.150Z,99.90
2019-01-17T00:19:02.205Z,99.90
2019-01-17T00:24:02.438Z,99.90
2019-01-17T00:28:56.789Z,99.90
2019-01-17T00:34:01.391Z,99.90
2019-01-17T00:39:04.922Z,99.90
2019-01-17T00:44:02.445Z,99.90
2019-01-17T00:49:05.672Z,99.90
2019-01-17T00:54:09.255Z,99.90
2019-01-17T00:59:13.845Z,99.90
2019-01-17T01:04:17.953Z,99.90
2019-01-17T01:09:33.150Z,99.90
2019-01-17T01:14:56.178Z,99.90
2019-01-17T01:19:59.390Z,99.90
2019-01-17T01:25:04.110Z,99.90
2019-01-17T01:30:17.959Z,99.90
2019-01-17T01:35:18.433Z,99.90
2019-01-17T01:40:22.441Z,99.90
2019-01-17T01:45:40.287Z,99.90
2019-01-17T01:50:54.205Z,99.90
2019-01-17T01:55:39.906Z,99.90
2019-01-17T02:00:25.636Z,99.90
2019-01-17T02:05:11.548Z,99.90
2019-01-17T02:09:57.297Z,99.90
2019-01-17T02:14:43.080Z,99.90
2019-01-17T02:19:28.949Z,99.90
2019-01-17T02:24:14.715Z,99.90
2019-01-17T02:29:00.427Z,99.90
2019-01-17T02:33:46.130Z,99.90
2019-01-17T02:38:31.869Z,99.90
2019-01-17T02:43:17.654Z,99.90
2019-01-17T02:48:03.394Z,99.90
2019-01-17T02:52:49.158Z,99.90
2019-01-17T02:57:34.847Z,99.90
2019-01-17T03:02:20.547Z,99.90
2019-01-17T03:07:06.412Z,99.90
2019-01-17T03:11:52.228Z,99.90
2019-01-17T03:16:37.898Z,99.90
2019-01-17T03:21:23.803Z,99.90
2019-01-17T03:26:09.583Z,99.90
2019-01-17T03:30:55.345Z,99.90
2019-01-17T03:35:41.001Z,99.90
2019-01-17T03:40:26.724Z,99.90
2019-01-17T03:45:12.860Z,99.90
2019-01-17T03:49:58.578Z,99.90
2019-01-17T03:54:50.552Z,99.90
2019-01-17T03:59:31.589Z,99.90
2019-01-17T04:04:17.417Z,99.90
2019-01-17T04:09:03.610Z,99.90
2019-01-17T04:13:49.296Z,99.90
2019-01-17T04:18:35.096Z,99.90
2019-01-17T04:23:20.888Z,99.90
2019-01-17T04:28:06.541Z,99.90
2019-01-17T04:32:52.261Z,99.90
2019-01-17T04:37:38.089Z,99.90
2019-01-17T04:42:23.754Z,99.90
2019-01-17T04:47:09.538Z,99.90
2019-01-17T04:51:55.228Z,99.90
2019-01-17T04:56:40.908Z,99.90
2019-01-17T05:01:26.648Z,99.90
2019-01-17T05:06:12.463Z,99.90
2019-01-17T05:10:58.152Z,99.90
2019-01-17T05:15:43.888Z,99.90
2019-01-17T05:20:29.571Z,99.90
2019-01-17T05:25:15.548Z,99.90
2019-01-17T05:30:01.289Z,99.90
2019-01-17T05:34:47.099Z,99.90
2019-01-17T05:39:32.999Z,99.90
2019-01-17T05:44:18.740Z,99.90
2019-01-17T05:49:04.713Z,99.90
2019-01-17T05:53:50.527Z,99.90
2019-01-17T05:58:36.716Z,99.90
2019-01-17T06:03:22.456Z,99.90
2019-01-17T06:08:08.275Z,99.90
2019-01-17T06:12:54.925Z,99.90
2019-01-17T06:17:40.713Z,99.90
2019-01-17T06:22:26.430Z,99.90
2019-01-17T06:27:12.501Z,99.90
2019-01-17T06:31:58.283Z,99.90
2019-01-17T06:36:44.064Z,99.90
2019-01-17T06:41:29.979Z,99.90
2019-01-17T06:46:15.735Z,99.90
2019-01-17T06:51:01.613Z,99.60
2019-01-17T06:55:47.437Z,95.80
2019-01-17T07:00:33.099Z,89.20
2019-01-17T07:05:18.881Z,97.70
2019-01-17T07:10:05.801Z,99.90
2019-01-17T07:14:51.604Z,99.90
2019-01-17T07:19:37.362Z,99.90
2019-01-17T07:24:23.240Z,99.90
2019-01-17T07:29:09.117Z,99.90
2019-01-17T07:33:54.897Z,99.90
2019-01-17T07:38:40.847Z,99.90
2019-01-17T07:43:26.740Z,99.90
2019-01-17T07:48:12.533Z,99.90
2019-01-17T07:52:58.486Z,99.90
2019-01-17T07:57:44.277Z,99.90
2019-01-17T08:02:30.126Z,99.90
2019-01-17T08:07:15.944Z,99.90
2019-01-17T08:12:05.033Z,99.90
2019-01-17T08:16:49.128Z,99.90
2019-01-17T08:21:35.015Z,99.90
2019-01-17T08:26:20.867Z,99.90
2019-01-17T08:31:06.773Z,99.90
2019-01-17T08:35:52.496Z,99.90
2019-01-17T08:40:38.242Z,99.90
2019-01-17T08:45:24.032Z,99.90
2019-01-17T08:50:11.657Z,99.90
2019-01-17T08:54:57.816Z,99.90
2019-01-17T08:59:43.636Z,99.90
2019-01-17T09:04:29.786Z,99.90
2019-01-17T09:09:15.594Z,99.90
2019-01-17T09:14:03.059Z,99.90
2019-01-17T09:18:48.934Z,99.90
2019-01-17T09:23:34.664Z,99.90
2019-01-17T09:28:20.418Z,99.90
2019-01-17T09:33:06.349Z,99.90
2019-01-17T09:37:52.150Z,99.90
2019-01-17T09:42:38.295Z,99.90
2019-01-17T09:47:24.132Z,99.90
2019-01-17T09:52:10.058Z,99.90
2019-01-17T09:56:55.949Z,99.90
2019-01-17T10:01:41.720Z,99.90
2019-01-17T10:06:27.439Z,97.50
2019-01-17T10:11:13.003Z,96.30
2019-01-17T10:16:25.778Z,95.10
2019-01-17T10:22:01.261Z,94.30
2019-01-17T10:27:21.410Z,94.30
2019-01-17T10:32:34.897Z,91.60
2019-01-17T10:38:22.634Z,90.50
2019-01-17T10:43:38.117Z,89.80
2019-01-17T10:48:59.253Z,94.90
2019-01-17T10:54:16.652Z,95.40
2019-01-17T10:59:35.730Z,92.70
2019-01-17T11:04:50.471Z,85.00
2019-01-17T11:10:29.169Z,67.50
2019-01-17T11:15:49.105Z,60.60
2019-01-17T11:21:23.441Z,53.70
2019-01-17T11:26:48.537Z,52.20
2019-01-17T11:32:07.081Z,52.50
2019-01-17T11:37:44.845Z,56.30
2019-01-17T11:43:19.870Z,61.00
2019-01-17T11:48:23.893Z,67.30
2019-01-17T11:53:55.294Z,73.10
2019-01-17T11:59:07.378Z,75.70
2019-01-17T12:04:20.056Z,84.20
2019-01-17T12:09:08.046Z,84.50
2019-01-17T12:13:54.220Z,87.80
2019-01-17T12:18:40.161Z,91.30
2019-01-17T12:23:26.201Z,92.20
2019-01-17T12:28:12.198Z,92.90
2019-01-17T12:32:58.019Z,94.00
2019-01-17T12:37:43.857Z,94.50
2019-01-17T12:42:35.210Z,94.50
2019-01-17T12:47:21.193Z,94.20
2019-01-17T12:52:07.489Z,94.00
2019-01-17T12:56:56.749Z,96.20
2019-01-17T13:01:43.908Z,94.60
2019-01-17T13:06:32.223Z,94.30
2019-01-17T13:11:18.265Z,95.90
2019-01-17T13:16:04.638Z,95.00
2019-01-17T13:20:50.529Z,97.00
2019-01-17T13:25:36.977Z,99.90
2019-01-17T13:30:24.342Z,99.90
2019-01-17T13:35:10.657Z,99.90
2019-01-17T13:39:56.541Z,99.90
2019-01-17T13:44:42.481Z,99.90
2019-01-17T13:49:28.445Z,99.90
2019-01-17T13:54:14.311Z,99.90
2019-01-17T13:59:00.296Z,99.90
2019-01-17T14:03:46.119Z,99.90
2019-01-17T14:08:32.159Z,99.90
2019-01-17T14:13:18.052Z,99.90
2019-01-17T14:18:04.009Z,99.90
2019-01-17T14:22:50.182Z,99.90
2019-01-17T14:27:36.105Z,99.90
2019-01-17T14:32:22.107Z,99.90
2019-01-17T14:37:08.126Z,99.90
2019-01-17T14:41:54.438Z,99.90
2019-01-17T14:46:40.543Z,99.90
2019-01-17T14:51:26.410Z,99.90
2019-01-17T14:56:12.412Z,99.90
2019-01-17T15:00:58.101Z,99.90
2019-01-17T15:05:44.258Z,99.90
2019-01-17T15:10:39.141Z,99.90
2019-01-17T15:15:25.141Z,99.90
2019-01-17T15:20:14.207Z,99.90
2019-01-17T15:25:00.859Z,99.90
2019-01-17T15:29:46.835Z,99.90
2019-01-17T15:34:32.847Z,99.90
2019-01-17T15:39:19.086Z,99.90
2019-01-17T15:44:05.113Z,99.90
2019-01-17T15:48:51.177Z,99.90
2019-01-17T15:53:37.008Z,99.90
2019-01-17T15:58:23.608Z,99.90
2019-01-17T16:03:10.036Z,99.90
2019-01-17T16:07:57.626Z,99.90
2019-01-17T16:12:44.329Z,99.90
2019-01-17T16:17:30.322Z,99.90
2019-01-17T16:22:16.110Z,99.90
2019-01-17T16:27:02.060Z,99.90
2019-01-17T16:31:48.175Z,99.90
2019-01-17T16:36:34.180Z,99.90
2019-01-17T16:41:20.253Z,99.90
2019-01-17T16:46:06.486Z,99.90
2019-01-17T16:50:52.343Z,99.90
2019-01-17T16:55:38.413Z,99.90
2019-01-17T17:00:36.046Z,99.90
2019-01-17T17:05:22.154Z,99.90
2019-01-17T17:10:08.863Z,99.90
2019-01-17T17:14:54.750Z,99.90
2019-01-17T17:19:41.254Z,99.90
2019-01-17T17:24:27.187Z,99.90
2019-01-17T17:29:13.411Z,99.90
2019-01-17T17:33:59.271Z,99.90
2019-01-17T17:38:45.188Z,99.90
2019-01-17T17:43:31.381Z,99.90
2019-01-17T17:48:17.231Z,99.90
2019-01-17T17:53:03.346Z,92.50
2019-01-17T17:57:50.675Z,86.80
2019-01-17T18:02:38.836Z,86.80
2019-01-17T18:07:25.043Z,88.90
2019-01-17T18:12:11.386Z,86.50
2019-01-17T18:16:57.718Z,91.70
2019-01-17T18:21:43.575Z,94.30
2019-01-17T18:26:29.676Z,99.50
2019-01-17T18:31:15.863Z,99.90
2019-01-17T18:36:02.520Z,99.90
2019-01-17T18:40:48.272Z,99.90
2019-01-17T18:45:35.064Z,99.90
2019-01-17T18:50:26.214Z,99.90
2019-01-17T18:55:12.416Z,99.90
2019-01-17T18:59:58.340Z,99.90
2019-01-17T19:04:44.773Z,99.90
2019-01-17T19:09:30.690Z,99.90
2019-01-17T19:14:17.665Z,99.90
2019-01-17T19:19:03.665Z,99.90
2019-01-17T19:23:49.693Z,99.90
2019-01-17T19:28:35.838Z,99.90
2019-01-17T19:33:22.069Z,99.90
2019-01-17T19:38:08.173Z,99.90
2019-01-17T19:42:54.832Z,99.90
2019-01-17T19:47:40.874Z,99.90
2019-01-17T19:52:26.963Z,99.90
2019-01-17T19:57:12.868Z,99.90
2019-01-17T20:01:58.925Z,99.90
2019-01-17T20:06:45.682Z,99.90
2019-01-17T20:11:31.733Z,99.90
2019-01-17T20:16:18.455Z,99.90
2019-01-17T20:21:04.980Z,99.90
2019-01-17T20:25:51.278Z,99.90
2019-01-17T20:30:38.109Z,99.90
2019-01-17T20:35:24.513Z,99.90
2019-01-17T20:40:12.420Z,99.90
2019-01-17T20:45:02.017Z,99.90
2019-01-17T20:49:48.167Z,99.90
2019-01-17T20:54:34.503Z,99.90
2019-01-17T20:59:21.477Z,99.90
2019-01-17T21:04:09.587Z,99.90
2019-01-17T21:08:56.823Z,99.90
2019-01-17T21:13:43.328Z,99.90
2019-01-17T21:18:31.000Z,99.90
2019-01-17T21:23:17.614Z,99.90
2019-01-17T21:28:04.334Z,99.90
2019-01-17T21:32:50.478Z,99.90
2019-01-17T21:37:37.391Z,99.90
2019-01-17T21:42:23.348Z,99.90
2019-01-17T21:47:09.273Z,99.90
2019-01-17T21:51:55.230Z,99.90
2019-01-17T21:56:41.187Z,99.70
2019-01-17T22:01:27.285Z,96.90
2019-01-17T22:06:13.220Z,96.50
2019-01-17T22:10:59.176Z,97.90
2019-01-17T22:15:45.108Z,98.90
2019-01-17T22:20:30.972Z,99.90
2019-01-17T22:25:17.829Z,99.90
2019-01-17T22:30:03.771Z,99.90
2019-01-17T22:34:49.768Z,99.90
2019-01-17T22:39:35.624Z,99.90
2019-01-17T22:44:21.828Z,99.90
2019-01-17T22:49:07.672Z,99.90
2019-01-17T22:53:53.609Z,99.90
2019-01-17T22:58:40.495Z,99.90
2019-01-17T23:03:29.638Z,99.90
2019-01-17T23:08:15.444Z,99.90
2019-01-17T23:13:01.211Z,99.90
2019-01-17T23:17:49.988Z,99.90
2019-01-17T23:22:35.753Z,99.90
2019-01-17T23:27:21.622Z,99.90
2019-01-17T23:32:07.535Z,99.90
2019-01-17T23:36:53.239Z,99.90
2019-01-17T23:41:39.243Z,99.90
2019-01-17T23:46:25.014Z,99.90
2019-01-17T23:51:10.888Z,99.90
2019-01-17T23:55:56.676Z,99.90
